sensor_id;sensor_type;location;lat;lon;timestamp;noise_LAeq;noise_LA_min;noise_LA_max;noise_LA01;noise_LA95
45109;Laerm;30447;48.742;8.972;2023-02-02T00:01:59;41.25;36.45;49.43;;
45109;Laerm;30447;48.742;8.972;2023-02-02T00:04:29;41.30;36.91;45.51;;
45109;Laerm;30447;48.742;8.972;2023-02-02T00:06:56;40.86;36.20;44.03;;
45109;Laerm;30447;48.742;8.972;2023-02-02T00:09:23;41.05;36.45;44.27;;
45109;Laerm;30447;48.742;8.972;2023-02-02T00:11:51;40.65;36.20;44.07;;
45109;Laerm;30447;48.742;8.972;2023-02-02T00:14:17;40.72;37.12;47.50;;
45109;Laerm;30447;48.742;8.972;2023-02-02T00:16:49;40.47;36.45;45.51;;
45109;Laerm;30447;48.742;8.972;2023-02-02T00:19:22;40.85;36.45;46.34;;
45109;Laerm;30447;48.742;8.972;2023-02-02T00:21:49;40.68;36.20;46.82;;
45109;Laerm;30447;48.742;8.972;2023-02-02T00:24:17;41.13;37.52;43.68;;
45109;Laerm;30447;48.742;8.972;2023-02-02T00:26:56;40.77;37.32;43.54;;
45109;Laerm;30447;48.742;8.972;2023-02-02T00:29:25;41.31;37.70;44.69;;
45109;Laerm;30447;48.742;8.972;2023-02-02T00:31:53;41.84;37.88;53.21;;
45109;Laerm;30447;48.742;8.972;2023-02-02T00:34:20;41.48;36.91;45.51;;
45109;Laerm;30447;48.742;8.972;2023-02-02T00:36:48;40.63;36.45;45.07;;
45109;Laerm;30447;48.742;8.972;2023-02-02T00:39:18;40.69;36.91;43.44;;
45109;Laerm;30447;48.742;8.972;2023-02-02T00:41:45;41.00;36.69;44.80;;
45109;Laerm;30447;48.742;8.972;2023-02-02T00:44:13;41.06;37.32;45.42;;
45109;Laerm;30447;48.742;8.972;2023-02-02T00:46:58;41.73;36.45;49.51;;
45109;Laerm;30447;48.742;8.972;2023-02-02T00:49:24;41.68;37.32;44.15;;
45109;Laerm;30447;48.742;8.972;2023-02-02T00:51:51;41.97;37.12;52.84;;
45109;Laerm;30447;48.742;8.972;2023-02-02T00:54:17;41.14;36.20;49.06;;
45109;Laerm;30447;48.742;8.972;2023-02-02T00:56:43;40.22;35.94;45.27;;
45109;Laerm;30447;48.742;8.972;2023-02-02T00:59:10;40.59;36.91;45.07;;
45109;Laerm;30447;48.742;8.972;2023-02-02T01:01:37;41.10;36.91;44.65;;
45109;Laerm;30447;48.742;8.972;2023-02-02T01:04:03;41.28;36.69;44.11;;
45109;Laerm;30447;48.742;8.972;2023-02-02T01:06:30;42.38;38.02;49.46;;
45109;Laerm;30447;48.742;8.972;2023-02-02T01:08:56;45.14;39.70;67.29;;
45109;Laerm;30447;48.742;8.972;2023-02-02T01:11:23;43.86;38.05;60.21;;
45109;Laerm;30447;48.742;8.972;2023-02-02T01:13:50;40.92;36.91;44.47;;
45109;Laerm;30447;48.742;8.972;2023-02-02T01:16:17;40.84;36.45;43.49;;
45109;Laerm;30447;48.742;8.972;2023-02-02T01:18:44;40.51;36.45;45.20;;
45109;Laerm;30447;48.742;8.972;2023-02-02T01:21:11;40.76;37.12;47.65;;
45109;Laerm;30447;48.742;8.972;2023-02-02T01:23:38;41.18;37.88;43.49;;
45109;Laerm;30447;48.742;8.972;2023-02-02T01:26:08;41.33;36.20;48.51;;
45109;Laerm;30447;48.742;8.972;2023-02-02T01:28:36;41.78;36.91;55.34;;
45109;Laerm;30447;48.742;8.972;2023-02-02T01:31:14;43.22;37.88;55.12;;
45109;Laerm;30447;48.742;8.972;2023-02-02T01:33:41;40.79;37.32;45.65;;
45109;Laerm;30447;48.742;8.972;2023-02-02T01:36:12;40.93;37.32;44.90;;
45109;Laerm;30447;48.742;8.972;2023-02-02T01:38:39;43.32;38.52;56.76;;
45109;Laerm;30447;48.742;8.972;2023-02-02T01:41:06;40.78;36.91;47.55;;
45109;Laerm;30447;48.742;8.972;2023-02-02T01:46:13;39.72;35.66;42.22;;
45109;Laerm;30447;48.742;8.972;2023-02-02T01:48:45;39.04;35.04;41.75;;
45109;Laerm;30447;48.742;8.972;2023-02-02T01:51:17;38.94;34.69;42.93;;
45109;Laerm;30447;48.742;8.972;2023-02-02T01:53:47;39.94;35.94;49.45;;
45109;Laerm;30447;48.742;8.972;2023-02-02T01:56:27;39.18;35.94;49.70;;
45109;Laerm;30447;48.742;8.972;2023-02-02T01:58:57;39.27;34.69;42.29;;
45109;Laerm;30447;48.742;8.972;2023-02-02T02:01:25;40.02;35.66;46.07;;
45109;Laerm;30447;48.742;8.972;2023-02-02T02:03:53;43.76;36.69;65.00;;
45109;Laerm;30447;48.742;8.972;2023-02-02T02:06:21;41.67;35.66;54.95;;
45109;Laerm;30447;48.742;8.972;2023-02-02T02:08:58;41.14;38.18;48.12;;
45109;Laerm;30447;48.742;8.972;2023-02-02T02:11:26;41.66;37.52;51.08;;
45109;Laerm;30447;48.742;8.972;2023-02-02T02:13:56;40.79;37.88;43.54;;
45109;Laerm;30447;48.742;8.972;2023-02-02T02:36:55;42.31;37.32;55.57;;
45109;Laerm;30447;48.742;8.972;2023-02-02T02:42:26;44.02;36.91;64.19;;
45109;Laerm;30447;48.742;8.972;2023-02-02T02:44:56;41.80;37.32;53.97;;
45109;Laerm;30447;48.742;8.972;2023-02-02T02:47:29;39.95;36.20;44.54;;
45109;Laerm;30447;48.742;8.972;2023-02-02T02:49:56;43.30;36.45;60.14;;
45109;Laerm;30447;48.742;8.972;2023-02-02T02:52:22;40.48;36.91;45.51;;
45109;Laerm;30447;48.742;8.972;2023-02-02T02:54:53;40.36;36.91;44.94;;
45109;Laerm;30447;48.742;8.972;2023-02-02T03:06:00;39.60;35.66;44.83;;
45109;Laerm;30447;48.742;8.972;2023-02-02T03:08:40;40.41;36.20;51.91;;
45109;Laerm;30447;48.742;8.972;2023-02-02T03:11:10;40.22;36.91;44.23;;
45109;Laerm;30447;48.742;8.972;2023-02-02T03:13:40;40.08;36.20;42.71;;
45109;Laerm;30447;48.742;8.972;2023-02-02T03:16:08;40.19;36.20;47.18;;
45109;Laerm;30447;48.742;8.972;2023-02-02T03:18:35;40.88;37.32;55.64;;
45109;Laerm;30447;48.742;8.972;2023-02-02T03:21:02;40.31;37.12;44.39;;
45109;Laerm;30447;48.742;8.972;2023-02-02T03:23:29;40.32;37.32;43.81;;
45109;Laerm;30447;48.742;8.972;2023-02-02T03:25:55;40.53;36.91;52.73;;
45109;Laerm;30447;48.742;8.972;2023-02-02T03:28:23;41.21;37.12;48.98;;
45109;Laerm;30447;48.742;8.972;2023-02-02T03:30:51;41.20;38.05;44.62;;
45109;Laerm;30447;48.742;8.972;2023-02-02T03:33:19;41.11;37.32;51.97;;
45109;Laerm;30447;48.742;8.972;2023-02-02T03:35:46;42.02;38.02;54.57;;
45109;Laerm;30447;48.742;8.972;2023-02-02T03:38:12;41.02;37.52;47.95;;
45109;Laerm;30447;48.742;8.972;2023-02-02T03:40:39;41.35;38.05;50.94;;
45109;Laerm;30447;48.742;8.972;2023-02-02T03:43:06;42.03;38.67;52.72;;
45109;Laerm;30447;48.742;8.972;2023-02-02T03:45:33;41.07;38.21;45.69;;
45109;Laerm;30447;48.742;8.972;2023-02-02T03:48:03;40.38;37.52;43.29;;
45109;Laerm;30447;48.742;8.972;2023-02-02T03:50:31;40.91;37.12;49.02;;
45109;Laerm;30447;48.742;8.972;2023-02-02T03:52:58;41.11;38.21;49.60;;
45109;Laerm;30447;48.742;8.972;2023-02-02T03:55:24;41.30;38.52;44.31;;
45109;Laerm;30447;48.742;8.972;2023-02-02T03:57:51;41.65;38.21;46.43;;
45109;Laerm;30447;48.742;8.972;2023-02-02T04:00:17;41.07;37.70;47.50;;
45109;Laerm;30447;48.742;8.972;2023-02-02T04:02:44;40.83;37.32;44.27;;
45109;Laerm;30447;48.742;8.972;2023-02-02T04:05:11;42.91;38.81;59.40;;
45109;Laerm;30447;48.742;8.972;2023-02-02T04:07:37;42.06;39.08;48.40;;
45109;Laerm;30447;48.742;8.972;2023-02-02T04:10:04;43.45;39.21;62.31;;
45109;Laerm;30447;48.742;8.972;2023-02-02T04:12:30;42.58;39.21;55.45;;
45109;Laerm;30447;48.742;8.972;2023-02-02T04:14:57;44.92;39.34;62.39;;
45109;Laerm;30447;48.742;8.972;2023-02-02T04:17:23;42.27;38.67;58.62;;
45109;Laerm;30447;48.742;8.972;2023-02-02T04:19:50;43.52;38.87;55.15;;
45109;Laerm;30447;48.742;8.972;2023-02-02T04:22:24;41.54;38.37;51.08;;
45109;Laerm;30447;48.742;8.972;2023-02-02T04:24:50;42.82;39.70;57.46;;
45109;Laerm;30447;48.742;8.972;2023-02-02T04:27:17;41.89;39.21;44.27;;
45109;Laerm;30447;48.742;8.972;2023-02-02T04:29:43;42.80;39.70;56.08;;
45109;Laerm;30447;48.742;8.972;2023-02-02T04:32:10;42.30;38.67;52.09;;
45109;Laerm;30447;48.742;8.972;2023-02-02T04:34:36;42.60;39.46;53.48;;
45109;Laerm;30447;48.742;8.972;2023-02-02T04:37:02;42.49;39.81;47.18;;
45109;Laerm;30447;48.742;8.972;2023-02-02T04:39:29;44.55;39.46;65.94;;
45109;Laerm;30447;48.742;8.972;2023-02-02T04:41:56;42.46;39.70;52.29;;
45109;Laerm;30447;48.742;8.972;2023-02-02T04:44:22;41.88;39.21;46.84;;
45109;Laerm;30447;48.742;8.972;2023-02-02T04:46:49;42.15;39.46;54.25;;
45109;Laerm;30447;48.742;8.972;2023-02-02T04:49:15;41.99;39.34;46.89;;
45109;Laerm;30447;48.742;8.972;2023-02-02T04:51:42;43.17;40.23;45.60;;
45109;Laerm;30447;48.742;8.972;2023-02-02T04:54:09;43.88;39.34;61.59;;
45109;Laerm;30447;48.742;8.972;2023-02-02T04:56:35;42.85;39.58;60.52;;
45109;Laerm;30447;48.742;8.972;2023-02-02T04:59:02;42.23;39.92;45.77;;
45109;Laerm;30447;48.742;8.972;2023-02-02T05:01:28;42.41;39.46;49.63;;
45109;Laerm;30447;48.742;8.972;2023-02-02T05:03:56;44.39;40.23;60.07;;
45109;Laerm;30447;48.742;8.972;2023-02-02T05:06:22;42.87;39.70;54.72;;
45109;Laerm;30447;48.742;8.972;2023-02-02T05:08:49;42.08;39.58;45.69;;
45109;Laerm;30447;48.742;8.972;2023-02-02T05:11:19;42.66;39.70;49.92;;
45109;Laerm;30447;48.742;8.972;2023-02-02T05:13:51;41.86;39.57;44.87;;
45109;Laerm;30447;48.742;8.972;2023-02-02T05:16:18;42.42;40.13;44.87;;
45109;Laerm;30447;48.742;8.972;2023-02-02T05:18:49;43.02;40.13;53.45;;
45109;Laerm;30447;48.742;8.972;2023-02-02T05:21:15;43.19;39.81;58.87;;
45109;Laerm;30447;48.742;8.972;2023-02-02T05:23:42;43.20;40.43;54.13;;
45109;Laerm;30447;48.742;8.972;2023-02-02T05:26:15;42.64;40.13;51.00;;
45109;Laerm;30447;48.742;8.972;2023-02-02T05:28:42;42.33;39.58;45.99;;
45109;Laerm;30447;48.742;8.972;2023-02-02T05:31:09;42.38;39.70;49.00;;
45109;Laerm;30447;48.742;8.972;2023-02-02T05:33:35;42.80;39.70;47.72;;
45109;Laerm;30447;48.742;8.972;2023-02-02T05:36:02;42.26;38.81;43.94;;
45109;Laerm;30447;48.742;8.972;2023-02-02T05:38:29;42.31;39.81;45.63;;
45109;Laerm;30447;48.742;8.972;2023-02-02T05:40:55;42.98;40.33;51.97;;
45109;Laerm;30447;48.742;8.972;2023-02-02T05:43:26;45.29;40.89;67.78;;
45109;Laerm;30447;48.742;8.972;2023-02-02T05:45:53;42.73;40.62;47.36;;
45109;Laerm;30447;48.742;8.972;2023-02-02T05:48:20;43.49;40.27;55.18;;
45109;Laerm;30447;48.742;8.972;2023-02-02T05:50:56;43.85;39.92;57.23;;
45109;Laerm;30447;48.742;8.972;2023-02-02T05:53:25;42.98;40.53;52.41;;
45109;Laerm;30447;48.742;8.972;2023-02-02T05:55:51;42.77;39.92;45.54;;
45109;Laerm;30447;48.742;8.972;2023-02-02T05:58:17;43.06;40.62;49.25;;
45109;Laerm;30447;48.742;8.972;2023-02-02T06:00:44;43.60;41.22;50.94;;
45109;Laerm;30447;48.742;8.972;2023-02-02T06:03:10;43.28;41.30;46.82;;
45109;Laerm;30447;48.742;8.972;2023-02-02T06:05:38;43.28;40.98;45.89;;
45109;Laerm;30447;48.742;8.972;2023-02-02T06:08:05;43.58;40.53;51.25;;
45109;Laerm;30447;48.742;8.972;2023-02-02T06:10:31;43.79;41.61;50.01;;
45109;Laerm;30447;48.742;8.972;2023-02-02T06:12:57;43.28;41.14;49.34;;
45109;Laerm;30447;48.742;8.972;2023-02-02T06:15:24;43.30;40.98;53.19;;
45109;Laerm;30447;48.742;8.972;2023-02-02T06:17:52;43.61;41.14;55.50;;
45109;Laerm;30447;48.742;8.972;2023-02-02T06:20:18;43.70;41.22;51.30;;
45109;Laerm;30447;48.742;8.972;2023-02-02T06:22:45;44.86;41.30;63.35;;
45109;Laerm;30447;48.742;8.972;2023-02-02T06:25:11;44.18;41.53;56.70;;
45109;Laerm;30447;48.742;8.972;2023-02-02T06:27:38;45.61;41.46;59.68;;
45109;Laerm;30447;48.742;8.972;2023-02-02T06:30:05;43.86;41.22;49.97;;
45109;Laerm;30447;48.742;8.972;2023-02-02T06:32:31;43.93;41.06;54.69;;
45109;Laerm;30447;48.742;8.972;2023-02-02T06:34:58;43.99;41.68;57.37;;
45109;Laerm;30447;48.742;8.972;2023-02-02T06:37:24;44.76;40.13;58.78;;
45109;Laerm;30447;48.742;8.972;2023-02-02T06:39:50;43.78;41.46;64.72;;
45109;Laerm;30447;48.742;8.972;2023-02-02T06:42:17;43.67;41.48;52.32;;
45109;Laerm;30447;48.742;8.972;2023-02-02T06:44:43;43.69;40.80;51.60;;
45109;Laerm;30447;48.742;8.972;2023-02-02T06:47:10;43.68;41.22;53.26;;
45109;Laerm;30447;48.742;8.972;2023-02-02T06:49:36;45.67;41.30;57.49;;
45109;Laerm;30447;48.742;8.972;2023-02-02T06:52:03;43.12;40.33;50.75;;
45109;Laerm;30447;48.742;8.972;2023-02-02T06:54:29;42.97;40.53;47.90;;
45109;Laerm;30447;48.742;8.972;2023-02-02T06:56:56;43.68;41.14;54.95;;
45109;Laerm;30447;48.742;8.972;2023-02-02T06:59:22;43.36;41.30;50.68;;
45109;Laerm;30447;48.742;8.972;2023-02-02T07:01:49;43.47;41.46;50.16;;
45109;Laerm;30447;48.742;8.972;2023-02-02T07:04:16;44.10;40.80;59.98;;
45109;Laerm;30447;48.742;8.972;2023-02-02T07:06:43;43.32;40.98;53.87;;
45109;Laerm;30447;48.742;8.972;2023-02-02T07:09:09;42.73;40.71;45.23;;
45109;Laerm;30447;48.742;8.972;2023-02-02T07:11:36;43.18;40.89;47.91;;
45109;Laerm;30447;48.742;8.972;2023-02-02T07:14:03;43.47;40.43;51.27;;
45109;Laerm;30447;48.742;8.972;2023-02-02T07:16:30;43.41;40.79;51.88;;
45109;Laerm;30447;48.742;8.972;2023-02-02T07:18:57;43.17;40.98;47.04;;
45109;Laerm;30447;48.742;8.972;2023-02-02T07:21:25;43.02;40.89;53.45;;
45109;Laerm;30447;48.742;8.972;2023-02-02T07:23:53;43.04;40.53;54.58;;
45109;Laerm;30447;48.742;8.972;2023-02-02T07:26:20;43.18;41.06;51.56;;
45109;Laerm;30447;48.742;8.972;2023-02-02T07:28:46;42.94;40.62;49.43;;
45109;Laerm;30447;48.742;8.972;2023-02-02T07:31:14;43.02;41.14;47.68;;
45109;Laerm;30447;48.742;8.972;2023-02-02T07:33:41;43.75;41.06;55.08;;
45109;Laerm;30447;48.742;8.972;2023-02-02T07:36:10;45.85;42.22;56.12;;
45109;Laerm;30447;48.742;8.972;2023-02-02T07:38:37;44.17;41.75;53.99;;
45109;Laerm;30447;48.742;8.972;2023-02-02T07:41:04;44.20;41.30;54.25;;
45109;Laerm;30447;48.742;8.972;2023-02-02T07:43:30;43.09;40.62;49.81;;
45109;Laerm;30447;48.742;8.972;2023-02-02T07:46:01;43.76;41.30;52.47;;
45109;Laerm;30447;48.742;8.972;2023-02-02T07:48:29;43.35;39.81;52.90;;
45109;Laerm;30447;48.742;8.972;2023-02-02T07:51:00;43.63;40.53;51.17;;
45109;Laerm;30447;48.742;8.972;2023-02-02T07:53:27;43.24;41.06;49.10;;
45109;Laerm;30447;48.742;8.972;2023-02-02T07:58:36;43.76;40.89;48.04;;
45109;Laerm;30447;48.742;8.972;2023-02-02T08:01:05;44.17;41.68;51.37;;
45109;Laerm;30447;48.742;8.972;2023-02-02T08:03:33;43.67;41.53;54.07;;
45109;Laerm;30447;48.742;8.972;2023-02-02T08:06:00;43.72;41.06;51.67;;
45109;Laerm;30447;48.742;8.972;2023-02-02T08:08:26;46.34;41.14;61.56;;
45109;Laerm;30447;48.742;8.972;2023-02-02T08:10:53;44.93;41.46;58.12;;
45109;Laerm;30447;48.742;8.972;2023-02-02T08:13:20;44.41;41.82;55.92;;
45109;Laerm;30447;48.742;8.972;2023-02-02T08:15:46;44.78;41.61;58.19;;
45109;Laerm;30447;48.742;8.972;2023-02-02T08:18:12;44.36;41.82;53.99;;
45109;Laerm;30447;48.742;8.972;2023-02-02T08:20:39;44.94;42.29;52.29;;
45109;Laerm;30447;48.742;8.972;2023-02-02T08:23:05;45.50;42.03;60.11;;
45109;Laerm;30447;48.742;8.972;2023-02-02T08:25:38;44.47;41.75;53.83;;
45109;Laerm;30447;48.742;8.972;2023-02-02T08:28:05;44.74;41.75;58.39;;
45109;Laerm;30447;48.742;8.972;2023-02-02T08:30:33;46.57;42.16;63.50;;
45109;Laerm;30447;48.742;8.972;2023-02-02T08:33:00;44.80;41.61;54.53;;
45109;Laerm;30447;48.742;8.972;2023-02-02T08:35:26;44.73;41.82;55.99;;
45109;Laerm;30447;48.742;8.972;2023-02-02T08:37:53;46.55;42.29;68.75;;
45109;Laerm;30447;48.742;8.972;2023-02-02T08:40:19;44.99;42.29;61.57;;
45109;Laerm;30447;48.742;8.972;2023-02-02T08:42:45;46.50;42.41;63.37;;
45109;Laerm;30447;48.742;8.972;2023-02-02T08:45:16;44.74;41.96;51.93;;
45109;Laerm;30447;48.742;8.972;2023-02-02T08:47:42;44.86;42.22;55.14;;
45109;Laerm;30447;48.742;8.972;2023-02-02T08:50:09;44.94;41.46;55.92;;
45109;Laerm;30447;48.742;8.972;2023-02-02T08:52:36;43.97;42.03;51.11;;
45109;Laerm;30447;48.742;8.972;2023-02-02T08:55:02;44.21;40.89;55.17;;
45109;Laerm;30447;48.742;8.972;2023-02-02T08:57:29;45.11;42.09;57.34;;
45109;Laerm;30447;48.742;8.972;2023-02-02T08:59:57;45.49;41.75;61.45;;
45109;Laerm;30447;48.742;8.972;2023-02-02T09:02:24;45.46;42.16;63.31;;
45109;Laerm;30447;48.742;8.972;2023-02-02T09:04:50;45.73;41.82;63.27;;
45109;Laerm;30447;48.742;8.972;2023-02-02T09:07:17;44.21;41.61;55.87;;
45109;Laerm;30447;48.742;8.972;2023-02-02T09:09:43;44.56;41.14;58.31;;
45109;Laerm;30447;48.742;8.972;2023-02-02T09:12:09;45.87;42.59;61.37;;
45109;Laerm;30447;48.742;8.972;2023-02-02T09:14:36;44.78;41.96;55.86;;
45109;Laerm;30447;48.742;8.972;2023-02-02T09:17:02;47.50;41.82;61.67;;
45109;Laerm;30447;48.742;8.972;2023-02-02T09:19:29;47.93;41.61;63.79;;
45109;Laerm;30447;48.742;8.972;2023-02-02T09:21:55;45.60;42.13;60.17;;
45109;Laerm;30447;48.742;8.972;2023-02-02T09:24:22;44.49;41.14;55.07;;
45109;Laerm;30447;48.742;8.972;2023-02-02T09:26:48;43.80;41.06;53.32;;
45109;Laerm;30447;48.742;8.972;2023-02-02T09:29:16;44.09;41.22;54.81;;
45109;Laerm;30447;48.742;8.972;2023-02-02T09:31:45;51.82;41.82;67.23;;
45109;Laerm;30447;48.742;8.972;2023-02-02T09:34:13;54.92;45.36;67.86;;
45109;Laerm;30447;48.742;8.972;2023-02-02T09:36:41;50.90;42.90;68.29;;
45109;Laerm;30447;48.742;8.972;2023-02-02T09:39:11;46.50;41.89;64.27;;
45109;Laerm;30447;48.742;8.972;2023-02-02T09:52:27;45.23;41.89;62.60;;
45109;Laerm;30447;48.742;8.972;2023-02-02T09:55:26;44.69;41.68;60.06;;
45109;Laerm;30447;48.742;8.972;2023-02-02T10:00:55;46.02;42.09;59.83;;
45109;Laerm;30447;48.742;8.972;2023-02-02T10:03:49;46.10;41.96;61.01;;
45109;Laerm;30447;48.742;8.972;2023-02-02T10:06:32;44.01;41.38;50.34;;
45109;Laerm;30447;48.742;8.972;2023-02-02T10:14:22;44.35;41.82;54.95;;
45109;Laerm;30447;48.742;8.972;2023-02-02T10:16:56;44.28;41.61;52.11;;
45109;Laerm;30447;48.742;8.972;2023-02-02T10:19:26;44.33;41.96;54.74;;
45109;Laerm;30447;48.742;8.972;2023-02-02T10:22:08;44.20;41.75;50.15;;
45109;Laerm;30447;48.742;8.972;2023-02-02T10:24:36;44.68;41.89;58.89;;
45109;Laerm;30447;48.742;8.972;2023-02-02T10:27:08;52.25;41.06;66.92;;
45109;Laerm;30447;48.742;8.972;2023-02-02T10:29:58;43.96;41.22;49.71;;
45109;Laerm;30447;48.742;8.972;2023-02-02T10:32:30;45.24;42.65;56.70;;
45109;Laerm;30447;48.742;8.972;2023-02-02T10:35:20;44.65;41.14;53.05;;
45109;Laerm;30447;48.742;8.972;2023-02-02T10:37:59;43.63;41.38;49.73;;
45109;Laerm;30447;48.742;8.972;2023-02-02T10:54:35;43.84;41.53;56.85;;
45109;Laerm;30447;48.742;8.972;2023-02-02T10:57:09;44.74;41.96;52.34;;
45109;Laerm;30447;48.742;8.972;2023-02-02T10:59:49;44.20;42.16;52.38;;
45109;Laerm;30447;48.742;8.972;2023-02-02T11:02:20;44.50;41.89;59.53;;
45109;Laerm;30447;48.742;8.972;2023-02-02T11:04:46;44.97;42.03;52.43;;
45109;Laerm;30447;48.742;8.972;2023-02-02T11:07:31;42.85;40.71;54.54;;
45109;Laerm;30447;48.742;8.972;2023-02-02T11:09:58;43.25;40.89;53.39;;
45109;Laerm;30447;48.742;8.972;2023-02-02T11:12:31;43.42;41.14;46.84;;
45109;Laerm;30447;48.742;8.972;2023-02-02T11:15:02;43.99;41.89;47.55;;
45109;Laerm;30447;48.742;8.972;2023-02-02T11:17:30;44.89;41.68;52.02;;
45109;Laerm;30447;48.742;8.972;2023-02-02T11:19:58;44.34;42.03;53.18;;
45109;Laerm;30447;48.742;8.972;2023-02-02T11:22:32;43.81;41.30;53.50;;
45109;Laerm;30447;48.742;8.972;2023-02-02T11:27:34;45.48;42.16;58.96;;
45109;Laerm;30447;48.742;8.972;2023-02-02T11:30:36;44.26;40.98;57.49;;
45109;Laerm;30447;48.742;8.972;2023-02-02T11:33:33;43.96;41.46;54.46;;
45109;Laerm;30447;48.742;8.972;2023-02-02T11:38:29;44.31;42.03;52.64;;
45109;Laerm;30447;48.742;8.972;2023-02-02T11:40:59;44.60;42.29;56.62;;
45109;Laerm;30447;48.742;8.972;2023-02-02T11:43:34;45.90;41.53;64.96;;
45109;Laerm;30447;48.742;8.972;2023-02-02T11:46:27;44.21;41.96;51.91;;
45109;Laerm;30447;48.742;8.972;2023-02-02T11:49:03;43.97;41.22;56.24;;
45109;Laerm;30447;48.742;8.972;2023-02-02T11:51:33;44.47;42.29;57.58;;
45109;Laerm;30447;48.742;8.972;2023-02-02T11:54:17;44.44;42.09;51.79;;
45109;Laerm;30447;48.742;8.972;2023-02-02T11:56:53;45.33;42.09;62.26;;
45109;Laerm;30447;48.742;8.972;2023-02-02T11:59:30;45.27;42.09;57.57;;
45109;Laerm;30447;48.742;8.972;2023-02-02T12:04:51;46.80;42.93;61.34;;
45109;Laerm;30447;48.742;8.972;2023-02-02T12:07:25;45.23;42.59;57.10;;
45109;Laerm;30447;48.742;8.972;2023-02-02T12:09:59;45.00;41.82;57.44;;
45109;Laerm;30447;48.742;8.972;2023-02-02T12:12:54;45.17;42.59;61.46;;
45109;Laerm;30447;48.742;8.972;2023-02-02T12:15:41;44.05;42.03;47.20;;
45109;Laerm;30447;48.742;8.972;2023-02-02T12:26:33;44.33;42.41;58.35;;
45109;Laerm;30447;48.742;8.972;2023-02-02T12:29:29;44.75;42.29;57.91;;
45109;Laerm;30447;48.742;8.972;2023-02-02T12:35:03;45.61;42.47;56.16;;
45109;Laerm;30447;48.742;8.972;2023-02-02T12:38:17;45.04;42.22;56.59;;
45109;Laerm;30447;48.742;8.972;2023-02-02T12:44:25;44.96;42.24;62.23;;
45109;Laerm;30447;48.742;8.972;2023-02-02T12:47:32;45.22;42.59;56.88;;
45109;Laerm;30447;48.742;8.972;2023-02-02T12:50:58;46.63;42.03;68.24;;
45109;Laerm;30447;48.742;8.972;2023-02-02T12:59:21;47.36;41.61;69.67;;
45109;Laerm;30447;48.742;8.972;2023-02-02T13:01:59;44.42;41.46;57.93;;
45109;Laerm;30447;48.742;8.972;2023-02-02T13:12:51;44.39;42.35;50.68;;
45109;Laerm;30447;48.742;8.972;2023-02-02T13:15:22;44.05;42.29;49.89;;
45109;Laerm;30447;48.742;8.972;2023-02-02T13:17:56;44.30;41.89;48.12;;
45109;Laerm;30447;48.742;8.972;2023-02-02T13:20:39;44.86;41.38;56.57;;
45109;Laerm;30447;48.742;8.972;2023-02-02T13:23:34;43.96;41.68;50.04;;
45109;Laerm;30447;48.742;8.972;2023-02-02T13:26:18;44.77;42.03;51.87;;
45109;Laerm;30447;48.742;8.972;2023-02-02T13:28:52;44.16;41.46;49.78;;
45109;Laerm;30447;48.742;8.972;2023-02-02T13:34:41;44.12;41.38;50.19;;
45109;Laerm;30447;48.742;8.972;2023-02-02T13:37:19;44.47;41.22;53.04;;
45109;Laerm;30447;48.742;8.972;2023-02-02T13:40:38;45.61;42.09;54.26;;
45109;Laerm;30447;48.742;8.972;2023-02-02T13:49:22;44.31;41.75;53.69;;
45109;Laerm;30447;48.742;8.972;2023-02-02T13:52:14;45.01;42.35;55.58;;
45109;Laerm;30447;48.742;8.972;2023-02-02T14:02:54;45.16;42.16;58.44;;
45109;Laerm;30447;48.742;8.972;2023-02-02T14:05:34;44.05;41.53;51.31;;
45109;Laerm;30447;48.742;8.972;2023-02-02T14:13:28;44.59;42.03;51.98;;
45109;Laerm;30447;48.742;8.972;2023-02-02T14:16:42;48.05;41.82;66.25;;
45109;Laerm;30447;48.742;8.972;2023-02-02T14:22:07;44.28;41.89;58.03;;
45109;Laerm;30447;48.742;8.972;2023-02-02T14:24:50;44.31;42.03;54.12;;
45109;Laerm;30447;48.742;8.972;2023-02-02T14:35:50;44.45;41.96;55.76;;
45109;Laerm;30447;48.742;8.972;2023-02-02T14:38:01;44.24;41.22;51.08;;
45109;Laerm;30447;48.742;8.972;2023-02-02T14:41:09;44.37;41.89;52.45;;
45109;Laerm;30447;48.742;8.972;2023-02-02T14:43:46;44.16;42.03;56.98;;
45109;Laerm;30447;48.742;8.972;2023-02-02T14:46:22;44.22;41.89;55.97;;
45109;Laerm;30447;48.742;8.972;2023-02-02T14:49:08;45.53;42.47;56.90;;
45109;Laerm;30447;48.742;8.972;2023-02-02T14:51:54;44.90;42.53;52.98;;
45109;Laerm;30447;48.742;8.972;2023-02-02T14:54:32;44.18;41.68;52.45;;
45109;Laerm;30447;48.742;8.972;2023-02-02T14:57:27;44.18;41.46;54.47;;
45109;Laerm;30447;48.742;8.972;2023-02-02T14:59:56;44.27;41.46;58.45;;
45109;Laerm;30447;48.742;8.972;2023-02-02T15:02:33;43.22;41.14;49.85;;
45109;Laerm;30447;48.742;8.972;2023-02-02T15:08:19;45.28;41.30;60.98;;
45109;Laerm;30447;48.742;8.972;2023-02-02T15:13:23;43.92;41.46;56.47;;
45109;Laerm;30447;48.742;8.972;2023-02-02T15:16:02;43.24;40.62;50.03;;
45109;Laerm;30447;48.742;8.972;2023-02-02T15:18:42;43.48;41.14;54.02;;
45109;Laerm;30447;48.742;8.972;2023-02-02T15:21:16;43.12;40.71;47.54;;
45109;Laerm;30447;48.742;8.972;2023-02-02T15:23:47;43.55;41.38;46.80;;
45109;Laerm;30447;48.742;8.972;2023-02-02T15:26:18;47.24;41.53;64.73;;
45109;Laerm;30447;48.742;8.972;2023-02-02T15:28:57;43.96;41.75;52.84;;
45109;Laerm;30447;48.742;8.972;2023-02-02T15:31:36;43.83;41.22;53.74;;
45109;Laerm;30447;48.742;8.972;2023-02-02T15:34:13;43.78;41.61;57.01;;
45109;Laerm;30447;48.742;8.972;2023-02-02T15:36:43;43.64;40.80;50.32;;
45109;Laerm;30447;48.742;8.972;2023-02-02T15:39:32;44.29;42.03;54.53;;
45109;Laerm;30447;48.742;8.972;2023-02-02T15:42:05;44.52;41.75;54.38;;
45109;Laerm;30447;48.742;8.972;2023-02-02T15:44:51;44.07;41.82;58.37;;
45109;Laerm;30447;48.742;8.972;2023-02-02T15:47:27;43.99;39.92;51.22;;
45109;Laerm;30447;48.742;8.972;2023-02-02T15:49:55;44.35;41.22;57.77;;
45109;Laerm;30447;48.742;8.972;2023-02-02T15:52:26;43.54;41.22;48.98;;
45109;Laerm;30447;48.742;8.972;2023-02-02T15:54:56;43.67;41.68;53.23;;
45109;Laerm;30447;48.742;8.972;2023-02-02T15:59:52;44.67;41.82;53.68;;
45109;Laerm;30447;48.742;8.972;2023-02-02T16:02:27;43.75;41.30;48.73;;
45109;Laerm;30447;48.742;8.972;2023-02-02T16:04:55;43.38;41.38;46.80;;
45109;Laerm;30447;48.742;8.972;2023-02-02T16:07:27;43.40;41.53;47.96;;
45109;Laerm;30447;48.742;8.972;2023-02-02T16:09:59;46.85;41.96;64.85;;
45109;Laerm;30447;48.742;8.972;2023-02-02T16:12:26;43.50;41.22;54.66;;
45109;Laerm;30447;48.742;8.972;2023-02-02T16:14:53;43.97;41.89;60.88;;
45109;Laerm;30447;48.742;8.972;2023-02-02T16:17:28;44.31;41.53;53.69;;
45109;Laerm;30447;48.742;8.972;2023-02-02T16:20:05;44.23;40.89;58.59;;
45109;Laerm;30447;48.742;8.972;2023-02-02T16:22:36;45.37;41.61;64.33;;
45109;Laerm;30447;48.742;8.972;2023-02-02T16:25:12;44.24;41.53;59.22;;
45109;Laerm;30447;48.742;8.972;2023-02-02T16:27:45;46.25;42.09;58.07;;
45109;Laerm;30447;48.742;8.972;2023-02-02T16:30:26;44.59;41.96;62.46;;
45109;Laerm;30447;48.742;8.972;2023-02-02T16:32:53;44.44;42.09;64.86;;
45109;Laerm;30447;48.742;8.972;2023-02-02T16:35:37;45.64;41.53;66.03;;
45109;Laerm;30447;48.742;8.972;2023-02-02T16:38:12;43.02;40.53;55.11;;